Ami — C6AD2 — position and weather

sailwx.info

Track history (hours):
 
Tides and Currents Weather Stations Pressure Air Temp Water Temp Dewpoint Dewpoint Depression Visibility Wind Speed Wind Dir Waves Ship Positions

Ami

Last reported at 2017-Oct-17 11:25 UTC. Time now 2017-Oct-19 03:53 UTC.
Position N 49°01' W 005°32'.

Length 183 m; draft 11.7 m.

Type: Tanker. MMSI: 311076200.

Date/timePositionNaut miles runAvg speedWind from/ knotsBaromVisibWave heightAir tempDewpointWater temp
2017-Oct-17 11:25N 49°01' W 005°32'11 9.8
2017-Oct-17 10:15N 49°07' W 005°17'4 9.8
2017-Oct-17 09:50N 49°09' W 005°12'5 8.0
2017-Oct-17 09:13N 49°12' W 005°06'2 7.9
2017-Oct-17 08:56N 49°14' W 005°03'5 8.1
2017-Oct-17 08:21N 49°16' W 004°57'4 9.8
2017-Oct-17 07:57N 49°18' W 004°51'710.1
2017-Oct-17 07:15N 49°22' W 004°42'3 9.6
2017-Oct-17 06:58N 49°23' W 004°39'5 9.4
2017-Oct-17 06:28N 49°26' W 004°33'6 8.6
2017-Oct-17 05:46N 49°29' W 004°25'3 7.8
2017-Oct-17 05:27N 49°30' W 004°22'10 6.9
2017-Oct-17 04:03N 49°35' W 004°09'4 6.1
2017-Oct-17 03:26N 49°37' W 004°04'3 5.8
2017-Oct-17 02:58N 49°39' W 004°01'3 5.9
2017-Oct-17 02:23N 49°41' W 003°56'7 5.1
2017-Oct-17 01:01N 49°44' W 003°47'1 7.4
2017-Oct-17 00:50N 49°45' W 003°45'5 7.0
2017-Oct-17 00:08N 49°48' W 003°39'1 7.4
2017-Oct-17 00:00N 49°48' W 003°38'4 7.7
2017-Oct-16 23:30N 49°50' W 003°33'4 7.8
2017-Oct-16 23:00N 49°51' W 003°27'4 9.0
2017-Oct-16 22:30N 49°53' W 003°20'4 8.4
2017-Oct-16 22:00N 49°54' W 003°14'4 8.3
2017-Oct-16 21:30N 49°56' W 003°08'4 8.0
2017-Oct-16 21:00N 49°57' W 003°02'4 7.4
2017-Oct-16 20:30N 49°58' W 002°57'3 7.0
2017-Oct-16 20:00N 49°59' W 002°51'3 6.2
2017-Oct-16 19:30N 49°60' W 002°47'3 5.6
2017-Oct-16 19:00N 50°00' W 002°43'3 5.4
2017-Oct-16 18:30N 50°01' W 002°39'2 4.5
2017-Oct-16 18:00N 50°02' W 002°36'51 8.8
2017-Oct-16 12:10N 50°20' W 001°20'413.4
2017-Oct-16 11:53N 50°22' W 001°15'613.6
2017-Oct-16 11:29N 50°25' W 001°08'613.3
2017-Oct-16 11:00N 50°29' W 000°60'611.9
2017-Oct-16 10:30N 50°35' W 000°59'611.5
2017-Oct-16 10:00N 50°40' W 000°58'3 6.7
2017-Oct-16 09:30N 50°43' W 001°01'510.6
2017-Oct-16 09:01N 50°46' W 001°09'510.6
2017-Oct-16 08:30N 50°46' W 001°17'4 7.5
2017-Oct-16 08:00N 50°50' W 001°19'1 1.7
2017-Oct-16 07:31N 50°51' W 001°20'0 0.0
2017-Oct-16 06:59N 50°51' W 001°20'0 0.0
2017-Oct-16 06:30N 50°51' W 001°20'0 0.0
2017-Oct-16 05:59N 50°51' W 001°20'0 0.0
2017-Oct-16 05:30N 50°51' W 001°20'0 0.0
2017-Oct-16 05:00N 50°51' W 001°20'0 0.0
2017-Oct-16 04:30N 50°51' W 001°20'0 0.0
2017-Oct-16 03:48N 50°51' W 001°20'0 0.0
2017-Oct-16 03:30N 50°51' W 001°20'0 0.0
2017-Oct-16 02:59N 50°51' W 001°20'0 0.0
2017-Oct-16 02:29N 50°51' W 001°20'0 0.0
2017-Oct-16 01:53N 50°51' W 001°20'0 0.0
2017-Oct-16 01:30N 50°51' W 001°20'0 0.0
2017-Oct-16 00:59N 50°51' W 001°20'0 0.0
2017-Oct-16 00:30N 50°51' W 001°20'0 0.0
2017-Oct-15 23:59N 50°51' W 001°20'0 0.0
2017-Oct-15 23:18N 50°51' W 001°20'0 0.0
2017-Oct-15 22:59N 50°51' W 001°20'0 0.0
2017-Oct-15 22:24N 50°51' W 001°20'0 0.0
2017-Oct-15 21:59N 50°51' W 001°20'0 0.0
2017-Oct-15 21:29N 50°51' W 001°20'0 0.0
2017-Oct-15 20:59N 50°51' W 001°20'0 0.0
2017-Oct-15 20:24N 50°51' W 001°20'0 0.0
2017-Oct-15 19:59N 50°51' W 001°20'0 0.0
2017-Oct-15 19:30N 50°51' W 001°20'0 0.0
2017-Oct-15 18:23N 50°51' W 001°20'0 0.0
2017-Oct-15 17:54N 50°51' W 001°20'0 0.0
2017-Oct-15 17:30N 50°51' W 001°20'0 0.0
2017-Oct-15 17:00N 50°51' W 001°20'0 0.0
2017-Oct-15 16:24N 50°51' W 001°20'0 0.0
2017-Oct-15 16:00N 50°51' W 001°20'0 0.0
2017-Oct-15 15:30N 50°51' W 001°20'0 0.0
2017-Oct-15 15:00N 50°51' W 001°20'0 0.0
2017-Oct-15 13:53N 50°51' W 001°20'0 0.0
2017-Oct-15 13:29N 50°51' W 001°20'0 0.0
2017-Oct-15 13:00N 50°51' W 001°20'0 0.0
2017-Oct-15 12:27N 50°51' W 001°20'0 0.0
2017-Oct-15 11:58N 50°51' W 001°20'0 0.0
2017-Oct-15 11:30N 50°51' W 001°20'0 0.0
2017-Oct-15 10:53N 50°51' W 001°20'0 0.0
2017-Oct-15 10:27N 50°51' W 001°20'0 0.0
2017-Oct-15 09:58N 50°51' W 001°20'0 0.0
2017-Oct-15 09:29N 50°51' W 001°20'0 0.0
2017-Oct-15 08:59N 50°51' W 001°20'0 0.0
2017-Oct-15 08:27N 50°51' W 001°20'0 0.0
2017-Oct-15 07:57N 50°51' W 001°20'0 0.0
2017-Oct-15 07:29N 50°51' W 001°20'0 0.0
2017-Oct-15 06:58N 50°51' W 001°20'0 0.0
2017-Oct-15 06:29N 50°51' W 001°20'0 0.0
2017-Oct-15 06:00N 50°51' W 001°20'0 0.0
2017-Oct-15 05:30N 50°51' W 001°20'0 0.0
2017-Oct-15 05:00N 50°51' W 001°20'0 0.0
2017-Oct-15 04:27N 50°51' W 001°20'0 0.0
2017-Oct-15 04:00N 50°51' W 001°20'0 0.0
2017-Oct-15 03:29N 50°51' W 001°20'0 0.0
2017-Oct-15 02:59N 50°51' W 001°20'0 0.0
2017-Oct-15 02:30N 50°51' W 001°20'0 0.0
2017-Oct-15 01:59N 50°51' W 001°20'0 0.0
2017-Oct-15 01:29N 50°51' W 001°20'0 0.0
2017-Oct-15 00:59N 50°51' W 001°20'0 0.0
2017-Oct-15 00:30N 50°51' W 001°20'0 0.0
2017-Oct-15 00:00N 50°51' W 001°20'0 0.0
2017-Oct-14 23:30N 50°51' W 001°20'0 0.0
2017-Oct-14 23:00N 50°51' W 001°20'0 0.0
2017-Oct-14 22:30N 50°51' W 001°20'0 0.0
2017-Oct-14 21:59N 50°51' W 001°20'0 0.0
2017-Oct-14 21:29N 50°51' W 001°20'0 0.0
2017-Oct-14 21:00N 50°51' W 001°20'0 0.0
2017-Oct-14 20:30N 50°51' W 001°20'0 0.0
2017-Oct-14 19:59N 50°51' W 001°20'0 0.0
2017-Oct-14 19:28N 50°51' W 001°20'0 0.0
2017-Oct-14 18:59N 50°51' W 001°20'0 0.0
2017-Oct-14 18:30N 50°51' W 001°20'0 0.0
2017-Oct-14 18:00N 50°51' W 001°20'0 0.0
2017-Oct-14 17:29N 50°51' W 001°20'0 0.0
2017-Oct-14 16:59N 50°51' W 001°20'0 0.0
2017-Oct-14 16:29N 50°51' W 001°20'0 0.0
2017-Oct-14 15:59N 50°51' W 001°20'0 0.0
2017-Oct-14 15:27N 50°51' W 001°20'0 0.0
2017-Oct-14 14:59N 50°51' W 001°20'0 0.0
2017-Oct-14 14:23N 50°51' W 001°20'0 0.0
2017-Oct-14 13:57N 50°51' W 001°20'0 0.0
2017-Oct-14 13:30N 50°51' W 001°20'0 0.0
2017-Oct-14 13:00N 50°51' W 001°20'0 0.0
2017-Oct-14 12:30N 50°51' W 001°20'0 0.0
2017-Oct-14 11:59N 50°51' W 001°20'0 0.0
2017-Oct-14 11:30N 50°51' W 001°20'0 0.0
2017-Oct-14 10:59N 50°51' W 001°20'0 0.0
2017-Oct-14 10:30N 50°51' W 001°20'0 0.0
2017-Oct-14 09:59N 50°51' W 001°20'0 0.0
2017-Oct-14 09:29N 50°51' W 001°20'0 0.0
2017-Oct-14 08:59N 50°51' W 001°20'0 0.0
2017-Oct-14 08:30N 50°51' W 001°20'0 0.0
2017-Oct-14 07:59N 50°51' W 001°20'0 0.0
2017-Oct-14 07:29N 50°51' W 001°20'0 0.0
2017-Oct-14 06:58N 50°51' W 001°20'0 0.0
2017-Oct-14 06:29N 50°51' W 001°20'0 0.0
2017-Oct-14 05:58N 50°51' W 001°20'0 0.0
2017-Oct-14 05:30N 50°51' W 001°20'0 0.0
2017-Oct-14 05:00N 50°51' W 001°20'0 0.0
2017-Oct-14 04:29N 50°51' W 001°20'0 0.0
2017-Oct-14 03:59N 50°51' W 001°20'0 0.0
2017-Oct-14 03:30N 50°51' W 001°20'0 0.0
2017-Oct-14 02:59N 50°51' W 001°20'0 0.0
2017-Oct-14 02:30N 50°51' W 001°20'0 0.0
2017-Oct-14 01:57N 50°51' W 001°20'0 0.0
2017-Oct-14 01:29N 50°51' W 001°20'0 0.0
2017-Oct-14 00:57N 50°51' W 001°20'0 0.0
2017-Oct-14 00:30N 50°51' W 001°20'0 0.0
2017-Oct-14 00:00N 50°51' W 001°20'0 0.0
2017-Oct-13 23:30N 50°51' W 001°20'0 0.0
2017-Oct-13 22:58N 50°51' W 001°20'0 0.0
2017-Oct-13 22:29N 50°51' W 001°20'0 0.0
2017-Oct-13 22:00N 50°51' W 001°20'0 0.0
2017-Oct-13 21:30N 50°51' W 001°20'0 0.0
2017-Oct-13 20:51N 50°51' W 001°20'0 0.0
2017-Oct-13 20:29N 50°51' W 001°20'0 0.0
2017-Oct-13 19:59N 50°51' W 001°20'0 0.0
2017-Oct-13 19:30N 50°51' W 001°20'1 1.9
2017-Oct-13 19:00N 50°50' W 001°19'3 6.9
2017-Oct-13 18:30N 50°47' W 001°18'612.9
2017-Oct-13 18:01N 50°46' W 001°08'713.5
2017-Oct-13 17:30N 50°41' W 000°60'2 4.8
2017-Oct-13 17:01N 50°39' W 001°01'2 2.7
2017-Oct-13 16:27N 50°38' W 001°03'0 0.0
2017-Oct-13 15:57N 50°38' W 001°03'0 0.0
2017-Oct-13 15:28N 50°38' W 001°03'0 0.0
2017-Oct-13 14:57N 50°38' W 001°03'0 0.0
2017-Oct-13 14:27N 50°38' W 001°03'0 0.0
2017-Oct-13 13:58N 50°38' W 001°03'0 0.0
2017-Oct-13 13:28N 50°38' W 001°03'0 0.0
2017-Oct-13 12:57N 50°38' W 001°03'0 0.0
2017-Oct-13 12:28N 50°38' W 001°03'0 0.0
2017-Oct-13 11:58N 50°38' W 001°03'0 0.0
2017-Oct-13 11:27N 50°38' W 001°03'0 0.0
2017-Oct-13 10:58N 50°38' W 001°03'0 0.0
2017-Oct-13 10:27N 50°38' W 001°03'0 0.0
2017-Oct-13 09:57N 50°38' W 001°03'0 0.1
2017-Oct-13 09:27N 50°38' W 001°03'0 0.3
2017-Oct-13 08:58N 50°38' W 001°03'0 0.1
2017-Oct-13 08:28N 50°38' W 001°03'0 0.0
2017-Oct-13 07:58N 50°38' W 001°03'0 0.0
2017-Oct-13 07:27N 50°38' W 001°03'0 0.0
2017-Oct-13 06:57N 50°38' W 001°03'0 0.0
2017-Oct-13 06:27N 50°38' W 001°03'0 0.1
2017-Oct-13 05:57N 50°38' W 001°03'0 0.1
2017-Oct-13 05:28N 50°38' W 001°03'0 0.1
2017-Oct-13 04:57N 50°38' W 001°03'0 0.1
2017-Oct-13 04:28N 50°38' W 001°03'0 0.1
2017-Oct-13 03:58N 50°38' W 001°03'0 0.0
2017-Oct-13 03:27N 50°38' W 001°03'0 0.1
2017-Oct-13 02:58N 50°38' W 001°03'0 0.0
2017-Oct-13 02:28N 50°38' W 001°03'0 0.0
2017-Oct-13 01:57N 50°38' W 001°03'0 0.0
2017-Oct-13 01:27N 50°38' W 001°03'0 0.0
2017-Oct-13 00:57N 50°38' W 001°03'0 0.0
2017-Oct-13 00:27N 50°38' W 001°03'0 0.0
2017-Oct-12 23:57N 50°38' W 001°03'0 0.0
2017-Oct-12 23:27N 50°38' W 001°03'0 0.0
2017-Oct-12 22:57N 50°38' W 001°03'0 0.0
2017-Oct-12 22:28N 50°38' W 001°03'0 0.0
2017-Oct-12 21:58N 50°38' W 001°03'0 0.2
2017-Oct-12 21:28N 50°38' W 001°03'0 0.2
2017-Oct-12 20:57N 50°38' W 001°03'0 0.0
2017-Oct-12 20:27N 50°38' W 001°03'0 0.0
2017-Oct-12 19:57N 50°38' W 001°03'0 0.0
2017-Oct-12 19:28N 50°38' W 001°03'0 0.0
2017-Oct-12 18:57N 50°38' W 001°03'0 0.0
2017-Oct-12 18:27N 50°38' W 001°03'0 0.0
2017-Oct-12 17:58N 50°38' W 001°03'0 0.0
2017-Oct-12 17:28N 50°38' W 001°03'0 0.1
2017-Oct-12 16:57N 50°38' W 001°03'0 0.2
2017-Oct-12 16:27N 50°38' W 001°03'0 0.2
2017-Oct-12 15:58N 50°38' W 001°03'0 0.1
2017-Oct-12 15:27N 50°38' W 001°03'0 0.0
2017-Oct-12 14:52N 50°38' W 001°03'0 0.0
2017-Oct-12 14:27N 50°38' W 001°03'0 0.0
2017-Oct-12 13:57N 50°38' W 001°03'0 0.0
2017-Oct-12 13:27N 50°38' W 001°03'0 0.0
2017-Oct-12 12:58N 50°38' W 001°03'0 0.0
2017-Oct-12 12:27N 50°38' W 001°03'0 0.0
2017-Oct-12 11:58N 50°38' W 001°03'0 0.0
2017-Oct-12 11:27N 50°38' W 001°03'0 0.0
2017-Oct-12 10:57N 50°38' W 001°03'0 0.0
2017-Oct-12 10:27N 50°38' W 001°03'0 0.0
2017-Oct-12 09:57N 50°38' W 001°03'0 0.0
2017-Oct-12 09:27N 50°38' W 001°03'0 0.2
2017-Oct-12 08:58N 50°38' W 001°03'0 0.2
2017-Oct-12 08:27N 50°38' W 001°03'0 0.0
2017-Oct-12 07:57N 50°38' W 001°03'0 0.0
2017-Oct-12 07:27N 50°38' W 001°03'0 0.0
2017-Oct-12 06:57N 50°38' W 001°03'0 0.0
2017-Oct-12 06:27N 50°38' W 001°03'0 0.0
2017-Oct-12 05:57N 50°38' W 001°03'0 0.0
2017-Oct-12 05:27N 50°38' W 001°03'0 0.0
2017-Oct-12 04:58N 50°38' W 001°03'0 0.0
2017-Oct-12 04:28N 50°38' W 001°03'0 0.2
2017-Oct-12 03:57N 50°38' W 001°03'0 0.3
2017-Oct-12 03:28N 50°38' W 001°03'0 0.1
2017-Oct-12 02:57N 50°38' W 001°03'0 0.0
2017-Oct-12 02:27N 50°38' W 001°03'0 0.0
2017-Oct-12 01:57N 50°38' W 001°03'0 0.0
2017-Oct-12 01:27N 50°38' W 001°03'0 0.0
2017-Oct-12 00:57N 50°38' W 001°03'0 0.0
2017-Oct-12 00:28N 50°38' W 001°03'0 0.0
2017-Oct-11 23:58N 50°38' W 001°03'0 0.0
2017-Oct-11 23:27N 50°38' W 001°03'0 0.0
2017-Oct-11 22:57N 50°38' W 001°03'0 0.0
2017-Oct-11 22:28N 50°38' W 001°03'0 0.0
2017-Oct-11 21:58N 50°38' W 001°03'0 0.0
2017-Oct-11 21:28N 50°38' W 001°03'0 0.1
2017-Oct-11 20:57N 50°38' W 001°03'0 0.0
2017-Oct-11 20:27N 50°38' W 001°03'0 0.0
2017-Oct-11 19:57N 50°38' W 001°03'0 0.1
2017-Oct-11 19:28N 50°38' W 001°03'0 0.2
2017-Oct-11 18:57N 50°38' W 001°03'0 0.1
2017-Oct-11 18:28N 50°38' W 001°03'0 0.0
2017-Oct-11 17:46N 50°38' W 001°03'0 0.1
2017-Oct-11 17:28N 50°38' W 001°03'0 0.1
2017-Oct-11 16:57N 50°38' W 001°03'0 0.0
2017-Oct-10 23:57N 50°38' W 001°03'0 0.0
2017-Oct-10 23:28N 50°38' W 001°03'0 0.0
2017-Oct-10 22:58N 50°38' W 001°03'0 0.0
2017-Oct-10 22:28N 50°38' W 001°03'0 0.0
2017-Oct-10 21:57N 50°38' W 001°03'0 0.0
2017-Oct-10 21:28N 50°38' W 001°03'0 0.0
2017-Oct-10 20:57N 50°38' W 001°03'0 0.0
2017-Oct-10 20:27N 50°38' W 001°03'0 0.1
2017-Oct-10 19:57N 50°38' W 001°03'0 0.0
2017-Oct-10 19:27N 50°38' W 001°03'0 0.4
2017-Oct-10 18:57N 50°38' W 001°03'0 0.1
2017-Oct-10 18:28N 50°38' W 001°03'0 0.1
2017-Oct-10 17:58N 50°38' W 001°03'0 0.1
2017-Oct-10 17:28N 50°38' W 001°03'0 0.0
2017-Oct-10 16:58N 50°38' W 001°03'0 0.0
2017-Oct-10 16:28N 50°38' W 001°03'0 0.0
2017-Oct-10 15:57N 50°38' W 001°03'0 0.0
2017-Oct-10 15:27N 50°38' W 001°03'0 0.0
2017-Oct-10 14:58N 50°38' W 001°03'0 0.2
2017-Oct-10 13:57N 50°38' W 001°03'0 0.0
2017-Oct-10 13:27N 50°38' W 001°03'0 0.0
2017-Oct-10 12:58N 50°38' W 001°03'0 0.0
2017-Oct-10 12:27N 50°38' W 001°03'0 0.0
2017-Oct-10 11:57N 50°38' W 001°03'0 0.0
2017-Oct-10 11:28N 50°38' W 001°03'0 0.0
2017-Oct-10 10:57N 50°38' W 001°03'0 0.0
2017-Oct-10 10:28N 50°38' W 001°03'0 0.0
2017-Oct-10 09:58N 50°38' W 001°03'0 0.0
2017-Oct-10 09:28N 50°38' W 001°03'0 0.0
2017-Oct-10 08:58N 50°38' W 001°03'0 0.0
2017-Oct-10 08:28N 50°38' W 001°03'0 0.0
2017-Oct-10 07:57N 50°38' W 001°03'0 0.0
2017-Oct-10 07:28N 50°38' W 001°03'0 0.3
2017-Oct-10 06:57N 50°38' W 001°03'0 0.1
2017-Oct-10 06:27N 50°38' W 001°03'0 0.0
2017-Oct-10 05:57N 50°38' W 001°03'0 0.0
2017-Oct-10 05:27N 50°38' W 001°03'0 0.0
2017-Oct-10 04:57N 50°38' W 001°03'0 0.0
2017-Oct-10 04:27N 50°38' W 001°03'0 0.0
2017-Oct-10 03:57N 50°38' W 001°03'0 0.0
2017-Oct-10 03:27N 50°38' W 001°03'0 0.0
2017-Oct-10 02:57N 50°38' W 001°03'0 0.0
2017-Oct-10 02:27N 50°38' W 001°03'0 0.1
2017-Oct-10 01:57N 50°38' W 001°03'0 0.4
2017-Oct-10 01:27N 50°38' W 001°03'0 0.0
2017-Oct-10 00:58N 50°38' W 001°03'0 0.0
2017-Oct-10 00:27N 50°38' W 001°03'0 0.0
2017-Oct-09 23:58N 50°38' W 001°03'0 0.0
2017-Oct-09 23:27N 50°38' W 001°03'0 0.0
2017-Oct-09 22:58N 50°38' W 001°03'0 0.0
2017-Oct-09 22:27N 50°38' W 001°03'0 0.0
2017-Oct-09 21:57N 50°38' W 001°03'0 0.0
2017-Oct-09 21:27N 50°38' W 001°03'0 0.0
2017-Oct-09 20:58N 50°38' W 001°03'0 0.0
2017-Oct-09 20:27N 50°38' W 001°03'0 0.0
2017-Oct-09 19:58N 50°38' W 001°03'0 0.0
2017-Oct-09 19:27N 50°38' W 001°03'0 0.3
2017-Oct-09 18:58N 50°38' W 001°03'0 0.1
2017-Oct-09 18:21N 50°38' W 001°03'0 0.0
2017-Oct-09 17:57N 50°38' W 001°03'0 0.0
2017-Oct-09 17:28N 50°38' W 001°03'0 0.0
2017-Oct-09 16:57N 50°38' W 001°03'0 0.0
2017-Oct-09 16:28N 50°38' W 001°03'0 0.0
2017-Oct-09 15:57N 50°38' W 001°03'0 0.0
2017-Oct-09 15:27N 50°38' W 001°03'0 0.0
2017-Oct-09 14:58N 50°38' W 001°03'0 0.0
2017-Oct-09 14:27N 50°38' W 001°03'0 0.0
2017-Oct-09 13:57N 50°38' W 001°03'0 0.3
2017-Oct-09 13:27N 50°38' W 001°03'0 0.3
2017-Oct-09 12:58N 50°38' W 001°03'0 0.1
2017-Oct-09 12:27N 50°38' W 001°03'0 0.0
2017-Oct-09 11:58N 50°38' W 001°03'0 0.0
2017-Oct-09 11:28N 50°38' W 001°03'0 0.0
2017-Oct-09 10:57N 50°38' W 001°03'0 0.0
2017-Oct-09 10:28N 50°38' W 001°03'0 0.0
2017-Oct-09 09:58N 50°38' W 001°03'0 0.0
2017-Oct-09 09:27N 50°38' W 001°03'0 0.0
2017-Oct-09 08:57N 50°38' W 001°03'0 0.0
2017-Oct-09 08:27N 50°38' W 001°03'0 0.0
2017-Oct-09 07:58N 50°38' W 001°03'0 0.1
2017-Oct-09 07:27N 50°38' W 001°03'0 0.1
2017-Oct-09 06:57N 50°38' W 001°03'0 0.3
2017-Oct-09 06:27N 50°38' W 001°03'0 0.1
2017-Oct-09 05:57N 50°38' W 001°03'0 0.1
2017-Oct-09 05:27N 50°38' W 001°03'0 0.0
2017-Oct-09 04:58N 50°38' W 001°03'0 0.0
2017-Oct-09 04:27N 50°38' W 001°03'0 0.0
2017-Oct-09 03:57N 50°38' W 001°03'0 0.0
2017-Oct-09 03:30N 50°38' W 001°03'0 0.0
2017-Oct-09 03:00N 50°38' W 001°03'0 0.0
2017-Oct-09 02:30N 50°38' W 001°03'0 0.0
2017-Oct-09 02:00N 50°38' W 001°03'0 0.0
2017-Oct-09 01:30N 50°38' W 001°03'0 0.1
2017-Oct-09 01:00N 50°38' W 001°03'0 0.3
2017-Oct-09 00:30N 50°38' W 001°03'0 0.1
2017-Oct-09 00:00N 50°38' W 001°03'0 0.0
2017-Oct-08 23:27N 50°38' W 001°03'0 0.0
2017-Oct-08 22:57N 50°38' W 001°03'0 0.0
2017-Oct-08 22:30N 50°38' W 001°03'0 0.0
2017-Oct-08 21:57N 50°38' W 001°03'0 0.0
2017-Oct-08 21:30N 50°38' W 001°03'0 0.0
2017-Oct-08 21:00N 50°38' W 001°03'0 0.0
2017-Oct-08 20:30N 50°38' W 001°03'0 0.0
2017-Oct-08 20:00N 50°38' W 001°03'0 0.0
2017-Oct-08 19:28N 50°38' W 001°03'0 0.0
2017-Oct-08 18:57N 50°38' W 001°03'0 0.4
2017-Oct-08 18:30N 50°38' W 001°03'0 0.1
2017-Oct-08 17:58N 50°38' W 001°03'0 0.0
2017-Oct-08 17:30N 50°38' W 001°03'0 0.0
2017-Oct-08 16:57N 50°38' W 001°03'0 0.0
2017-Oct-08 16:28N 50°38' W 001°03'0 0.1
2017-Oct-08 15:57N 50°38' W 001°03'0 0.0
2017-Oct-08 15:30N 50°38' W 001°03'0 0.0
2017-Oct-08 15:00N 50°38' W 001°03'0 0.0
2017-Oct-08 14:30N 50°38' W 001°03'0 0.0
2017-Oct-08 14:00N 50°38' W 001°03'0 0.0
2017-Oct-08 13:27N 50°38' W 001°03'0 0.0
2017-Oct-08 13:00N 50°38' W 001°03'0 0.3
2017-Oct-08 12:27N 50°38' W 001°03'0 0.1
2017-Oct-08 12:00N 50°38' W 001°03'0 0.0
2017-Oct-08 11:30N 50°38' W 001°03'0 0.0
2017-Oct-08 10:58N 50°38' W 001°03'0 0.0
2017-Oct-08 10:27N 50°38' W 001°03'0 0.0
2017-Oct-08 10:00N 50°38' W 001°03'0 0.0
2017-Oct-08 09:28N 50°38' W 001°03'0 0.0
2017-Oct-08 09:00N 50°38' W 001°03'0 0.0
2017-Oct-08 08:30N 50°38' W 001°03'0 0.0
2017-Oct-08 07:54N 50°38' W 001°03'0 0.0
2017-Oct-08 07:31N 50°38' W 001°03'0 0.0
2017-Oct-08 07:00N 50°38' W 001°03'0 0.0
2017-Oct-08 06:30N 50°38' W 001°03'0 0.4
2017-Oct-08 06:00N 50°38' W 001°03'0 0.1
2017-Oct-08 05:30N 50°38' W 001°03'0 0.0
2017-Oct-08 04:57N 50°38' W 001°03'0 0.0
2017-Oct-08 04:28N 50°38' W 001°03'0 0.0
2017-Oct-08 04:00N 50°38' W 001°03'0 0.0
2017-Oct-08 03:30N 50°38' W 001°03'0 0.0
2017-Oct-08 03:00N 50°38' W 001°03'0 0.0
2017-Oct-08 02:27N 50°38' W 001°03'0 0.0
2017-Oct-08 02:00N 50°38' W 001°03'0 0.0
2017-Oct-08 01:28N 50°38' W 001°03'0 0.0
2017-Oct-08 00:57N 50°38' W 001°03'0 0.1
2017-Oct-08 00:30N 50°38' W 001°03'0 0.4
2017-Oct-08 00:00N 50°38' W 001°03'0 0.1
2017-Oct-07 23:30N 50°38' W 001°03'0 0.1
2017-Oct-07 23:00N 50°38' W 001°03'0 0.0
2017-Oct-07 22:27N 50°38' W 001°03'0 0.0
2017-Oct-07 21:58N 50°38' W 001°03'0 0.0
2017-Oct-07 21:31N 50°38' W 001°03'0 0.0
2017-Oct-07 20:57N 50°38' W 001°03'0 0.0
2017-Oct-07 20:27N 50°38' W 001°03'0 0.0
2017-Oct-07 20:00N 50°38' W 001°03'0 0.0
2017-Oct-07 19:31N 50°38' W 001°03'0 0.0
2017-Oct-07 19:00N 50°38' W 001°03'0 0.0
2017-Oct-07 18:30N 50°38' W 001°03'0 0.0
2017-Oct-07 18:00N 50°38' W 001°03'0 0.3
2017-Oct-07 17:30N 50°38' W 001°03'0 0.1
2017-Oct-07 16:59N 50°38' W 001°03'0 0.0
2017-Oct-07 16:30N 50°38' W 001°03'0 0.0
2017-Oct-07 15:59N 50°38' W 001°03'0 0.0
2017-Oct-07 15:30N 50°38' W 001°03'0 0.3
2017-Oct-07 15:00N 50°38' W 001°03'0 0.1
2017-Oct-07 14:30N 50°38' W 001°03'0 0.0
2017-Oct-07 14:00N 50°38' W 001°03'0 0.0
2017-Oct-07 13:29N 50°38' W 001°03'0 0.1
2017-Oct-07 13:00N 50°38' W 001°03'0 0.4
2017-Oct-07 12:29N 50°38' W 001°03'0 0.1
2017-Oct-07 12:00N 50°38' W 001°03'0 0.1
2017-Oct-07 11:30N 50°38' W 001°03'  
Track history (hours):
 
Tides and Currents Weather Stations Pressure Air Temp Water Temp Dewpoint Dewpoint Depression Visibility Wind Speed Wind Dir Waves Ship Positions

Ami

Last reported at 2017-Oct-17 11:25 UTC. Time now 2017-Oct-19 03:53 UTC.
Position N 49°01' W 005°32'.

Length 183 m; draft 11.7 m.

Type: Tanker. MMSI: 311076200.

Date/timePositionNaut miles runAvg speedWind from/ knotsBaromVisibWave heightAir tempDewpointWater temp
2017-Oct-17 11:25N 49°01' W 005°32'11 9.8
2017-Oct-17 10:15N 49°07' W 005°17'4 9.8
2017-Oct-17 09:50N 49°09' W 005°12'5 8.0
2017-Oct-17 09:13N 49°12' W 005°06'2 7.9
2017-Oct-17 08:56N 49°14' W 005°03'5 8.1
2017-Oct-17 08:21N 49°16' W 004°57'4 9.8
2017-Oct-17 07:57N 49°18' W 004°51'710.1
2017-Oct-17 07:15N 49°22' W 004°42'3 9.6
2017-Oct-17 06:58N 49°23' W 004°39'5 9.4
2017-Oct-17 06:28N 49°26' W 004°33'6 8.6
2017-Oct-17 05:46N 49°29' W 004°25'3 7.8
2017-Oct-17 05:27N 49°30' W 004°22'10 6.9
2017-Oct-17 04:03N 49°35' W 004°09'4 6.1
2017-Oct-17 03:26N 49°37' W 004°04'3 5.8
2017-Oct-17 02:58N 49°39' W 004°01'3 5.9
2017-Oct-17 02:23N 49°41' W 003°56'7 5.1
2017-Oct-17 01:01N 49°44' W 003°47'1 7.4
2017-Oct-17 00:50N 49°45' W 003°45'5 7.0
2017-Oct-17 00:08N 49°48' W 003°39'1 7.4
2017-Oct-17 00:00N 49°48' W 003°38'4 7.7
2017-Oct-16 23:30N 49°50' W 003°33'4 7.8
2017-Oct-16 23:00N 49°51' W 003°27'4 9.0
2017-Oct-16 22:30N 49°53' W 003°20'4 8.4
2017-Oct-16 22:00N 49°54' W 003°14'4 8.3
2017-Oct-16 21:30N 49°56' W 003°08'4 8.0
2017-Oct-16 21:00N 49°57' W 003°02'4 7.4
2017-Oct-16 20:30N 49°58' W 002°57'3 7.0
2017-Oct-16 20:00N 49°59' W 002°51'3 6.2
2017-Oct-16 19:30N 49°60' W 002°47'3 5.6
2017-Oct-16 19:00N 50°00' W 002°43'3 5.4
2017-Oct-16 18:30N 50°01' W 002°39'2 4.5
2017-Oct-16 18:00N 50°02' W 002°36'51 8.8
2017-Oct-16 12:10N 50°20' W 001°20'413.4
2017-Oct-16 11:53N 50°22' W 001°15'613.6
2017-Oct-16 11:29N 50°25' W 001°08'613.3
2017-Oct-16 11:00N 50°29' W 000°60'611.9
2017-Oct-16 10:30N 50°35' W 000°59'611.5
2017-Oct-16 10:00N 50°40' W 000°58'3 6.7
2017-Oct-16 09:30N 50°43' W 001°01'510.6
2017-Oct-16 09:01N 50°46' W 001°09'510.6
2017-Oct-16 08:30N 50°46' W 001°17'4 7.5
2017-Oct-16 08:00N 50°50' W 001°19'1 1.7
2017-Oct-16 07:31N 50°51' W 001°20'0 0.0
2017-Oct-16 06:59N 50°51' W 001°20'0 0.0
2017-Oct-16 06:30N 50°51' W 001°20'0 0.0
2017-Oct-16 05:59N 50°51' W 001°20'0 0.0
2017-Oct-16 05:30N 50°51' W 001°20'0 0.0
2017-Oct-16 05:00N 50°51' W 001°20'0 0.0
2017-Oct-16 04:30N 50°51' W 001°20'0 0.0
2017-Oct-16 03:48N 50°51' W 001°20'0 0.0
2017-Oct-16 03:30N 50°51' W 001°20'0 0.0
2017-Oct-16 02:59N 50°51' W 001°20'0 0.0
2017-Oct-16 02:29N 50°51' W 001°20'0 0.0
2017-Oct-16 01:53N 50°51' W 001°20'0 0.0
2017-Oct-16 01:30N 50°51' W 001°20'0 0.0
2017-Oct-16 00:59N 50°51' W 001°20'0 0.0
2017-Oct-16 00:30N 50°51' W 001°20'0 0.0
2017-Oct-15 23:59N 50°51' W 001°20'0 0.0
2017-Oct-15 23:18N 50°51' W 001°20'0 0.0
2017-Oct-15 22:59N 50°51' W 001°20'0 0.0
2017-Oct-15 22:24N 50°51' W 001°20'0 0.0
2017-Oct-15 21:59N 50°51' W 001°20'0 0.0
2017-Oct-15 21:29N 50°51' W 001°20'0 0.0
2017-Oct-15 20:59N 50°51' W 001°20'0 0.0
2017-Oct-15 20:24N 50°51' W 001°20'0 0.0
2017-Oct-15 19:59N 50°51' W 001°20'0 0.0
2017-Oct-15 19:30N 50°51' W 001°20'0 0.0
2017-Oct-15 18:23N 50°51' W 001°20'0 0.0
2017-Oct-15 17:54N 50°51' W 001°20'0 0.0
2017-Oct-15 17:30N 50°51' W 001°20'0 0.0
2017-Oct-15 17:00N 50°51' W 001°20'0 0.0
2017-Oct-15 16:24N 50°51' W 001°20'0 0.0
2017-Oct-15 16:00N 50°51' W 001°20'0 0.0
2017-Oct-15 15:30N 50°51' W 001°20'0 0.0
2017-Oct-15 15:00N 50°51' W 001°20'0 0.0
2017-Oct-15 13:53N 50°51' W 001°20'0 0.0
2017-Oct-15 13:29N 50°51' W 001°20'0 0.0
2017-Oct-15 13:00N 50°51' W 001°20'0 0.0
2017-Oct-15 12:27N 50°51' W 001°20'0 0.0
2017-Oct-15 11:58N 50°51' W 001°20'0 0.0
2017-Oct-15 11:30N 50°51' W 001°20'0 0.0
2017-Oct-15 10:53N 50°51' W 001°20'0 0.0
2017-Oct-15 10:27N 50°51' W 001°20'0 0.0
2017-Oct-15 09:58N 50°51' W 001°20'0 0.0
2017-Oct-15 09:29N 50°51' W 001°20'0 0.0
2017-Oct-15 08:59N 50°51' W 001°20'0 0.0
2017-Oct-15 08:27N 50°51' W 001°20'0 0.0
2017-Oct-15 07:57N 50°51' W 001°20'0 0.0
2017-Oct-15 07:29N 50°51' W 001°20'0 0.0
2017-Oct-15 06:58N 50°51' W 001°20'0 0.0
2017-Oct-15 06:29N 50°51' W 001°20'0 0.0
2017-Oct-15 06:00N 50°51' W 001°20'0 0.0
2017-Oct-15 05:30N 50°51' W 001°20'0 0.0
2017-Oct-15 05:00N 50°51' W 001°20'0 0.0
2017-Oct-15 04:27N 50°51' W 001°20'0 0.0
2017-Oct-15 04:00N 50°51' W 001°20'0 0.0
2017-Oct-15 03:29N 50°51' W 001°20'0 0.0
2017-Oct-15 02:59N 50°51' W 001°20'0 0.0
2017-Oct-15 02:30N 50°51' W 001°20'0 0.0
2017-Oct-15 01:59N 50°51' W 001°20'0 0.0
2017-Oct-15 01:29N 50°51' W 001°20'0 0.0
2017-Oct-15 00:59N 50°51' W 001°20'0 0.0
2017-Oct-15 00:30N 50°51' W 001°20'0 0.0
2017-Oct-15 00:00N 50°51' W 001°20'0 0.0
2017-Oct-14 23:30N 50°51' W 001°20'0 0.0
2017-Oct-14 23:00N 50°51' W 001°20'0 0.0
2017-Oct-14 22:30N 50°51' W 001°20'0 0.0
2017-Oct-14 21:59N 50°51' W 001°20'0 0.0
2017-Oct-14 21:29N 50°51' W 001°20'0 0.0
2017-Oct-14 21:00N 50°51' W 001°20'0 0.0
2017-Oct-14 20:30N 50°51' W 001°20'0 0.0
2017-Oct-14 19:59N 50°51' W 001°20'0 0.0
2017-Oct-14 19:28N 50°51' W 001°20'0 0.0
2017-Oct-14 18:59N 50°51' W 001°20'0 0.0
2017-Oct-14 18:30N 50°51' W 001°20'0 0.0
2017-Oct-14 18:00N 50°51' W 001°20'0 0.0
2017-Oct-14 17:29N 50°51' W 001°20'0 0.0
2017-Oct-14 16:59N 50°51' W 001°20'0 0.0
2017-Oct-14 16:29N 50°51' W 001°20'0 0.0
2017-Oct-14 15:59N 50°51' W 001°20'0 0.0
2017-Oct-14 15:27N 50°51' W 001°20'0 0.0
2017-Oct-14 14:59N 50°51' W 001°20'0 0.0
2017-Oct-14 14:23N 50°51' W 001°20'0 0.0
2017-Oct-14 13:57N 50°51' W 001°20'0 0.0
2017-Oct-14 13:30N 50°51' W 001°20'0 0.0
2017-Oct-14 13:00N 50°51' W 001°20'0 0.0
2017-Oct-14 12:30N 50°51' W 001°20'0 0.0
2017-Oct-14 11:59N 50°51' W 001°20'0 0.0
2017-Oct-14 11:30N 50°51' W 001°20'0 0.0
2017-Oct-14 10:59N 50°51' W 001°20'0 0.0
2017-Oct-14 10:30N 50°51' W 001°20'0 0.0
2017-Oct-14 09:59N 50°51' W 001°20'0 0.0
2017-Oct-14 09:29N 50°51' W 001°20'0 0.0
2017-Oct-14 08:59N 50°51' W 001°20'0 0.0
2017-Oct-14 08:30N 50°51' W 001°20'0 0.0
2017-Oct-14 07:59N 50°51' W 001°20'0 0.0
2017-Oct-14 07:29N 50°51' W 001°20'0 0.0
2017-Oct-14 06:58N 50°51' W 001°20'0 0.0
2017-Oct-14 06:29N 50°51' W 001°20'0 0.0
2017-Oct-14 05:58N 50°51' W 001°20'0 0.0
2017-Oct-14 05:30N 50°51' W 001°20'0 0.0
2017-Oct-14 05:00N 50°51' W 001°20'0 0.0
2017-Oct-14 04:29N 50°51' W 001°20'0 0.0
2017-Oct-14 03:59N 50°51' W 001°20'0 0.0
2017-Oct-14 03:30N 50°51' W 001°20'0 0.0
2017-Oct-14 02:59N 50°51' W 001°20'0 0.0
2017-Oct-14 02:30N 50°51' W 001°20'0 0.0
2017-Oct-14 01:57N 50°51' W 001°20'0 0.0
2017-Oct-14 01:29N 50°51' W 001°20'0 0.0
2017-Oct-14 00:57N 50°51' W 001°20'0 0.0
2017-Oct-14 00:30N 50°51' W 001°20'0 0.0
2017-Oct-14 00:00N 50°51' W 001°20'0 0.0
2017-Oct-13 23:30N 50°51' W 001°20'0 0.0
2017-Oct-13 22:58N 50°51' W 001°20'0 0.0
2017-Oct-13 22:29N 50°51' W 001°20'0 0.0
2017-Oct-13 22:00N 50°51' W 001°20'0 0.0
2017-Oct-13 21:30N 50°51' W 001°20'0 0.0
2017-Oct-13 20:51N 50°51' W 001°20'0 0.0
2017-Oct-13 20:29N 50°51' W 001°20'0 0.0
2017-Oct-13 19:59N 50°51' W 001°20'0 0.0
2017-Oct-13 19:30N 50°51' W 001°20'1 1.9
2017-Oct-13 19:00N 50°50' W 001°19'3 6.9
2017-Oct-13 18:30N 50°47' W 001°18'612.9
2017-Oct-13 18:01N 50°46' W 001°08'713.5
2017-Oct-13 17:30N 50°41' W 000°60'2 4.8
2017-Oct-13 17:01N 50°39' W 001°01'2 2.7
2017-Oct-13 16:27N 50°38' W 001°03'0 0.0
2017-Oct-13 15:57N 50°38' W 001°03'0 0.0
2017-Oct-13 15:28N 50°38' W 001°03'0 0.0
2017-Oct-13 14:57N 50°38' W 001°03'0 0.0
2017-Oct-13 14:27N 50°38' W 001°03'0 0.0
2017-Oct-13 13:58N 50°38' W 001°03'0 0.0
2017-Oct-13 13:28N 50°38' W 001°03'0 0.0
2017-Oct-13 12:57N 50°38' W 001°03'0 0.0
2017-Oct-13 12:28N 50°38' W 001°03'0 0.0
2017-Oct-13 11:58N 50°38' W 001°03'0 0.0
2017-Oct-13 11:27N 50°38' W 001°03'0 0.0
2017-Oct-13 10:58N 50°38' W 001°03'0 0.0
2017-Oct-13 10:27N 50°38' W 001°03'0 0.0
2017-Oct-13 09:57N 50°38' W 001°03'0 0.1
2017-Oct-13 09:27N 50°38' W 001°03'0 0.3
2017-Oct-13 08:58N 50°38' W 001°03'0 0.1
2017-Oct-13 08:28N 50°38' W 001°03'0 0.0
2017-Oct-13 07:58N 50°38' W 001°03'0 0.0
2017-Oct-13 07:27N 50°38' W 001°03'0 0.0
2017-Oct-13 06:57N 50°38' W 001°03'0 0.0
2017-Oct-13 06:27N 50°38' W 001°03'0 0.1
2017-Oct-13 05:57N 50°38' W 001°03'0 0.1
2017-Oct-13 05:28N 50°38' W 001°03'0 0.1
2017-Oct-13 04:57N 50°38' W 001°03'0 0.1
2017-Oct-13 04:28N 50°38' W 001°03'0 0.1
2017-Oct-13 03:58N 50°38' W 001°03'0 0.0
2017-Oct-13 03:27N 50°38' W 001°03'0 0.1
2017-Oct-13 02:58N 50°38' W 001°03'0 0.0
2017-Oct-13 02:28N 50°38' W 001°03'0 0.0
2017-Oct-13 01:57N 50°38' W 001°03'0 0.0
2017-Oct-13 01:27N 50°38' W 001°03'0 0.0
2017-Oct-13 00:57N 50°38' W 001°03'0 0.0
2017-Oct-13 00:27N 50°38' W 001°03'0 0.0
2017-Oct-12 23:57N 50°38' W 001°03'0 0.0
2017-Oct-12 23:27N 50°38' W 001°03'0 0.0
2017-Oct-12 22:57N 50°38' W 001°03'0 0.0
2017-Oct-12 22:28N 50°38' W 001°03'0 0.0
2017-Oct-12 21:58N 50°38' W 001°03'0 0.2
2017-Oct-12 21:28N 50°38' W 001°03'0 0.2
2017-Oct-12 20:57N 50°38' W 001°03'0 0.0
2017-Oct-12 20:27N 50°38' W 001°03'0 0.0
2017-Oct-12 19:57N 50°38' W 001°03'0 0.0
2017-Oct-12 19:28N 50°38' W 001°03'0 0.0
2017-Oct-12 18:57N 50°38' W 001°03'0 0.0
2017-Oct-12 18:27N 50°38' W 001°03'0 0.0
2017-Oct-12 17:58N 50°38' W 001°03'0 0.0
2017-Oct-12 17:28N 50°38' W 001°03'0 0.1
2017-Oct-12 16:57N 50°38' W 001°03'0 0.2
2017-Oct-12 16:27N 50°38' W 001°03'0 0.2
2017-Oct-12 15:58N 50°38' W 001°03'0 0.1
2017-Oct-12 15:27N 50°38' W 001°03'0 0.0
2017-Oct-12 14:52N 50°38' W 001°03'0 0.0
2017-Oct-12 14:27N 50°38' W 001°03'0 0.0
2017-Oct-12 13:57N 50°38' W 001°03'0 0.0
2017-Oct-12 13:27N 50°38' W 001°03'0 0.0
2017-Oct-12 12:58N 50°38' W 001°03'0 0.0
2017-Oct-12 12:27N 50°38' W 001°03'0 0.0
2017-Oct-12 11:58N 50°38' W 001°03'0 0.0
2017-Oct-12 11:27N 50°38' W 001°03'0 0.0
2017-Oct-12 10:57N 50°38' W 001°03'0 0.0
2017-Oct-12 10:27N 50°38' W 001°03'0 0.0
2017-Oct-12 09:57N 50°38' W 001°03'0 0.0
2017-Oct-12 09:27N 50°38' W 001°03'0 0.2
2017-Oct-12 08:58N 50°38' W 001°03'0 0.2
2017-Oct-12 08:27N 50°38' W 001°03'0 0.0
2017-Oct-12 07:57N 50°38' W 001°03'0 0.0
2017-Oct-12 07:27N 50°38' W 001°03'0 0.0
2017-Oct-12 06:57N 50°38' W 001°03'0 0.0
2017-Oct-12 06:27N 50°38' W 001°03'0 0.0
2017-Oct-12 05:57N 50°38' W 001°03'0 0.0
2017-Oct-12 05:27N 50°38' W 001°03'0 0.0
2017-Oct-12 04:58N 50°38' W 001°03'0 0.0
2017-Oct-12 04:28N 50°38' W 001°03'0 0.2
2017-Oct-12 03:57N 50°38' W 001°03'0 0.3
2017-Oct-12 03:28N 50°38' W 001°03'0 0.1
2017-Oct-12 02:57N 50°38' W 001°03'0 0.0
2017-Oct-12 02:27N 50°38' W 001°03'0 0.0
2017-Oct-12 01:57N 50°38' W 001°03'0 0.0
2017-Oct-12 01:27N 50°38' W 001°03'0 0.0
2017-Oct-12 00:57N 50°38' W 001°03'0 0.0
2017-Oct-12 00:28N 50°38' W 001°03'0 0.0
2017-Oct-11 23:58N 50°38' W 001°03'0 0.0
2017-Oct-11 23:27N 50°38' W 001°03'0 0.0
2017-Oct-11 22:57N 50°38' W 001°03'0 0.0
2017-Oct-11 22:28N 50°38' W 001°03'0 0.0
2017-Oct-11 21:58N 50°38' W 001°03'0 0.0
2017-Oct-11 21:28N 50°38' W 001°03'0 0.1
2017-Oct-11 20:57N 50°38' W 001°03'0 0.0
2017-Oct-11 20:27N 50°38' W 001°03'0 0.0
2017-Oct-11 19:57N 50°38' W 001°03'0 0.1
2017-Oct-11 19:28N 50°38' W 001°03'0 0.2
2017-Oct-11 18:57N 50°38' W 001°03'0 0.1
2017-Oct-11 18:28N 50°38' W 001°03'0 0.0
2017-Oct-11 17:46N 50°38' W 001°03'0 0.1
2017-Oct-11 17:28N 50°38' W 001°03'0 0.1
2017-Oct-11 16:57N 50°38' W 001°03'0 0.0
2017-Oct-10 23:57N 50°38' W 001°03'0 0.0
2017-Oct-10 23:28N 50°38' W 001°03'0 0.0
2017-Oct-10 22:58N 50°38' W 001°03'0 0.0
2017-Oct-10 22:28N 50°38' W 001°03'0 0.0
2017-Oct-10 21:57N 50°38' W 001°03'0 0.0
2017-Oct-10 21:28N 50°38' W 001°03'0 0.0
2017-Oct-10 20:57N 50°38' W 001°03'0 0.0
2017-Oct-10 20:27N 50°38' W 001°03'0 0.1
2017-Oct-10 19:57N 50°38' W 001°03'0 0.0
2017-Oct-10 19:27N 50°38' W 001°03'0 0.4
2017-Oct-10 18:57N 50°38' W 001°03'0 0.1
2017-Oct-10 18:28N 50°38' W 001°03'0 0.1
2017-Oct-10 17:58N 50°38' W 001°03'0 0.1
2017-Oct-10 17:28N 50°38' W 001°03'0 0.0
2017-Oct-10 16:58N 50°38' W 001°03'0 0.0
2017-Oct-10 16:28N 50°38' W 001°03'0 0.0
2017-Oct-10 15:57N 50°38' W 001°03'0 0.0
2017-Oct-10 15:27N 50°38' W 001°03'0 0.0
2017-Oct-10 14:58N 50°38' W 001°03'0 0.2
2017-Oct-10 13:57N 50°38' W 001°03'0 0.0
2017-Oct-10 13:27N 50°38' W 001°03'0 0.0
2017-Oct-10 12:58N 50°38' W 001°03'0 0.0
2017-Oct-10 12:27N 50°38' W 001°03'0 0.0
2017-Oct-10 11:57N 50°38' W 001°03'0 0.0
2017-Oct-10 11:28N 50°38' W 001°03'0 0.0
2017-Oct-10 10:57N 50°38' W 001°03'0 0.0
2017-Oct-10 10:28N 50°38' W 001°03'0 0.0
2017-Oct-10 09:58N 50°38' W 001°03'0 0.0
2017-Oct-10 09:28N 50°38' W 001°03'0 0.0
2017-Oct-10 08:58N 50°38' W 001°03'0 0.0
2017-Oct-10 08:28N 50°38' W 001°03'0 0.0
2017-Oct-10 07:57N 50°38' W 001°03'0 0.0
2017-Oct-10 07:28N 50°38' W 001°03'0 0.3
2017-Oct-10 06:57N 50°38' W 001°03'0 0.1
2017-Oct-10 06:27N 50°38' W 001°03'0 0.0
2017-Oct-10 05:57N 50°38' W 001°03'0 0.0
2017-Oct-10 05:27N 50°38' W 001°03'0 0.0
2017-Oct-10 04:57N 50°38' W 001°03'0 0.0
2017-Oct-10 04:27N 50°38' W 001°03'0 0.0
2017-Oct-10 03:57N 50°38' W 001°03'0 0.0
2017-Oct-10 03:27N 50°38' W 001°03'0 0.0
2017-Oct-10 02:57N 50°38' W 001°03'0 0.0
2017-Oct-10 02:27N 50°38' W 001°03'0 0.1
2017-Oct-10 01:57N 50°38' W 001°03'0 0.4
2017-Oct-10 01:27N 50°38' W 001°03'0 0.0
2017-Oct-10 00:58N 50°38' W 001°03'0 0.0
2017-Oct-10 00:27N 50°38' W 001°03'0 0.0
2017-Oct-09 23:58N 50°38' W 001°03'0 0.0
2017-Oct-09 23:27N 50°38' W 001°03'0 0.0
2017-Oct-09 22:58N 50°38' W 001°03'0 0.0
2017-Oct-09 22:27N 50°38' W 001°03'0 0.0
2017-Oct-09 21:57N 50°38' W 001°03'0 0.0
2017-Oct-09 21:27N 50°38' W 001°03'0 0.0
2017-Oct-09 20:58N 50°38' W 001°03'0 0.0
2017-Oct-09 20:27N 50°38' W 001°03'0 0.0
2017-Oct-09 19:58N 50°38' W 001°03'0 0.0
2017-Oct-09 19:27N 50°38' W 001°03'0 0.3
2017-Oct-09 18:58N 50°38' W 001°03'0 0.1
2017-Oct-09 18:21N 50°38' W 001°03'0 0.0
2017-Oct-09 17:57N 50°38' W 001°03'0 0.0
2017-Oct-09 17:28N 50°38' W 001°03'0 0.0
2017-Oct-09 16:57N 50°38' W 001°03'0 0.0
2017-Oct-09 16:28N 50°38' W 001°03'0 0.0
2017-Oct-09 15:57N 50°38' W 001°03'0 0.0
2017-Oct-09 15:27N 50°38' W 001°03'0 0.0
2017-Oct-09 14:58N 50°38' W 001°03'0 0.0
2017-Oct-09 14:27N 50°38' W 001°03'0 0.0
2017-Oct-09 13:57N 50°38' W 001°03'0 0.3
2017-Oct-09 13:27N 50°38' W 001°03'0 0.3
2017-Oct-09 12:58N 50°38' W 001°03'0 0.1
2017-Oct-09 12:27N 50°38' W 001°03'0 0.0
2017-Oct-09 11:58N 50°38' W 001°03'0 0.0
2017-Oct-09 11:28N 50°38' W 001°03'0 0.0
2017-Oct-09 10:57N 50°38' W 001°03'0 0.0
2017-Oct-09 10:28N 50°38' W 001°03'0 0.0
2017-Oct-09 09:58N 50°38' W 001°03'0 0.0
2017-Oct-09 09:27N 50°38' W 001°03'0 0.0
2017-Oct-09 08:57N 50°38' W 001°03'0 0.0
2017-Oct-09 08:27N 50°38' W 001°03'0 0.0
2017-Oct-09 07:58N 50°38' W 001°03'0 0.1
2017-Oct-09 07:27N 50°38' W 001°03'0 0.1
2017-Oct-09 06:57N 50°38' W 001°03'0 0.3
2017-Oct-09 06:27N 50°38' W 001°03'0 0.1
2017-Oct-09 05:57N 50°38' W 001°03'0 0.1
2017-Oct-09 05:27N 50°38' W 001°03'0 0.0
2017-Oct-09 04:58N 50°38' W 001°03'0 0.0
2017-Oct-09 04:27N 50°38' W 001°03'0 0.0
2017-Oct-09 03:57N 50°38' W 001°03'0 0.0
2017-Oct-09 03:30N 50°38' W 001°03'0 0.0
2017-Oct-09 03:00N 50°38' W 001°03'0 0.0
2017-Oct-09 02:30N 50°38' W 001°03'0 0.0
2017-Oct-09 02:00N 50°38' W 001°03'0 0.0
2017-Oct-09 01:30N 50°38' W 001°03'0 0.1
2017-Oct-09 01:00N 50°38' W 001°03'0 0.3
2017-Oct-09 00:30N 50°38' W 001°03'0 0.1
2017-Oct-09 00:00N 50°38' W 001°03'0 0.0
2017-Oct-08 23:27N 50°38' W 001°03'0 0.0
2017-Oct-08 22:57N 50°38' W 001°03'0 0.0
2017-Oct-08 22:30N 50°38' W 001°03'0 0.0
2017-Oct-08 21:57N 50°38' W 001°03'0 0.0
2017-Oct-08 21:30N 50°38' W 001°03'0 0.0
2017-Oct-08 21:00N 50°38' W 001°03'0 0.0
2017-Oct-08 20:30N 50°38' W 001°03'0 0.0
2017-Oct-08 20:00N 50°38' W 001°03'0 0.0
2017-Oct-08 19:28N 50°38' W 001°03'0 0.0
2017-Oct-08 18:57N 50°38' W 001°03'0 0.4
2017-Oct-08 18:30N 50°38' W 001°03'0 0.1
2017-Oct-08 17:58N 50°38' W 001°03'0 0.0
2017-Oct-08 17:30N 50°38' W 001°03'0 0.0
2017-Oct-08 16:57N 50°38' W 001°03'0 0.0
2017-Oct-08 16:28N 50°38' W 001°03'0 0.1
2017-Oct-08 15:57N 50°38' W 001°03'0 0.0
2017-Oct-08 15:30N 50°38' W 001°03'0 0.0
2017-Oct-08 15:00N 50°38' W 001°03'0 0.0
2017-Oct-08 14:30N 50°38' W 001°03'0 0.0
2017-Oct-08 14:00N 50°38' W 001°03'0 0.0
2017-Oct-08 13:27N 50°38' W 001°03'0 0.0
2017-Oct-08 13:00N 50°38' W 001°03'0 0.3
2017-Oct-08 12:27N 50°38' W 001°03'0 0.1
2017-Oct-08 12:00N 50°38' W 001°03'0 0.0
2017-Oct-08 11:30N 50°38' W 001°03'0 0.0
2017-Oct-08 10:58N 50°38' W 001°03'0 0.0
2017-Oct-08 10:27N 50°38' W 001°03'0 0.0
2017-Oct-08 10:00N 50°38' W 001°03'0 0.0
2017-Oct-08 09:28N 50°38' W 001°03'0 0.0
2017-Oct-08 09:00N 50°38' W 001°03'0 0.0
2017-Oct-08 08:30N 50°38' W 001°03'0 0.0
2017-Oct-08 07:54N 50°38' W 001°03'0 0.0
2017-Oct-08 07:31N 50°38' W 001°03'0 0.0
2017-Oct-08 07:00N 50°38' W 001°03'0 0.0
2017-Oct-08 06:30N 50°38' W 001°03'0 0.4
2017-Oct-08 06:00N 50°38' W 001°03'0 0.1
2017-Oct-08 05:30N 50°38' W 001°03'0 0.0
2017-Oct-08 04:57N 50°38' W 001°03'0 0.0
2017-Oct-08 04:28N 50°38' W 001°03'0 0.0
2017-Oct-08 04:00N 50°38' W 001°03'0 0.0
2017-Oct-08 03:30N 50°38' W 001°03'0 0.0
2017-Oct-08 03:00N 50°38' W 001°03'0 0.0
2017-Oct-08 02:27N 50°38' W 001°03'0 0.0
2017-Oct-08 02:00N 50°38' W 001°03'0 0.0
2017-Oct-08 01:28N 50°38' W 001°03'0 0.0
2017-Oct-08 00:57N 50°38' W 001°03'0 0.1
2017-Oct-08 00:30N 50°38' W 001°03'0 0.4
2017-Oct-08 00:00N 50°38' W 001°03'0 0.1
2017-Oct-07 23:30N 50°38' W 001°03'0 0.1
2017-Oct-07 23:00N 50°38' W 001°03'0 0.0
2017-Oct-07 22:27N 50°38' W 001°03'0 0.0
2017-Oct-07 21:58N 50°38' W 001°03'0 0.0
2017-Oct-07 21:31N 50°38' W 001°03'0 0.0
2017-Oct-07 20:57N 50°38' W 001°03'0 0.0
2017-Oct-07 20:27N 50°38' W 001°03'0 0.0
2017-Oct-07 20:00N 50°38' W 001°03'0 0.0
2017-Oct-07 19:31N 50°38' W 001°03'0 0.0
2017-Oct-07 19:00N 50°38' W 001°03'0 0.0
2017-Oct-07 18:30N 50°38' W 001°03'0 0.0
2017-Oct-07 18:00N 50°38' W 001°03'0 0.3
2017-Oct-07 17:30N 50°38' W 001°03'0 0.1
2017-Oct-07 16:59N 50°38' W 001°03'0 0.0
2017-Oct-07 16:30N 50°38' W 001°03'0 0.0
2017-Oct-07 15:59N 50°38' W 001°03'0 0.0
2017-Oct-07 15:30N 50°38' W 001°03'0 0.3
2017-Oct-07 15:00N 50°38' W 001°03'0 0.1
2017-Oct-07 14:30N 50°38' W 001°03'0 0.0
2017-Oct-07 14:00N 50°38' W 001°03'0 0.0
2017-Oct-07 13:29N 50°38' W 001°03'0 0.1
2017-Oct-07 13:00N 50°38' W 001°03'0 0.4
2017-Oct-07 12:29N 50°38' W 001°03'0 0.1
2017-Oct-07 12:00N 50°38' W 001°03'0 0.1
2017-Oct-07 11:30N 50°38' W 001°03'  

Dump ship's entire track history